createdAt,value
2022-11-02T00:01:49.976Z,8.10
2022-11-02T00:04:35.912Z,11.02
2022-11-02T00:07:21.415Z,8.00
2022-11-02T00:10:08.165Z,8.38
2022-11-02T00:12:53.621Z,6.40
2022-11-02T00:15:39.470Z,10.57
2022-11-02T00:18:25.092Z,5.50
2022-11-02T00:21:11.449Z,9.60
2022-11-02T00:23:58.178Z,11.60
2022-11-02T00:26:43.593Z,7.80
2022-11-02T00:29:33.578Z,10.73
2022-11-02T00:32:19.289Z,5.72
2022-11-02T00:35:05.564Z,9.15
2022-11-02T00:37:50.783Z,8.65
2022-11-02T00:40:36.306Z,6.78
2022-11-02T00:43:21.655Z,6.90
2022-11-02T00:46:07.162Z,10.75
2022-11-02T00:48:52.691Z,7.03
2022-11-02T00:51:38.452Z,9.65
2022-11-02T00:54:25.975Z,10.05
2022-11-02T00:57:14.026Z,4.82
2022-11-02T00:59:59.402Z,7.45
2022-11-02T01:02:45.307Z,8.38
2022-11-02T01:05:31.081Z,6.07
2022-11-02T01:08:16.753Z,4.32
2022-11-02T01:11:14.368Z,7.32
2022-11-02T01:13:59.569Z,11.23
2022-11-02T01:19:32.388Z,8.45
2022-11-02T01:22:17.618Z,7.75
2022-11-02T01:25:03.457Z,10.15
2022-11-02T01:27:48.677Z,6.95
2022-11-02T01:30:34.210Z,8.25
2022-11-02T01:33:19.540Z,5.90
2022-11-02T01:36:07.122Z,6.65
2022-11-02T01:38:54.768Z,5.07
2022-11-02T01:41:40.784Z,7.28
2022-11-02T01:44:34.989Z,9.13
2022-11-02T01:47:32.927Z,6.25
2022-11-02T01:50:22.695Z,11.98
2022-11-02T01:53:08.729Z,8.02
2022-11-02T01:55:55.140Z,11.50
2022-11-02T01:58:42.085Z,10.25
2022-11-02T02:01:27.643Z,8.10
2022-11-02T02:04:14.366Z,9.90
2022-11-02T02:06:59.989Z,6.28
2022-11-02T02:09:48.749Z,12.77
2022-11-02T02:12:39.652Z,14.02
2022-11-02T02:15:36.328Z,11.00
2022-11-02T02:18:35.253Z,7.00
2022-11-02T02:21:38.467Z,10.10
2022-11-02T02:24:56.841Z,13.77
2022-11-02T02:28:00.538Z,10.65
2022-11-02T02:31:00.334Z,8.65
2022-11-02T02:34:09.863Z,10.90
2022-11-02T02:37:24.119Z,7.45
2022-11-02T02:40:19.022Z,11.45
2022-11-02T02:43:12.412Z,7.32
2022-11-02T02:50:35.917Z,14.38
2022-11-02T02:53:25.895Z,7.60
2022-11-02T02:56:13.711Z,10.05
2022-11-02T02:59:03.163Z,10.15
2022-11-02T03:01:48.690Z,12.68
2022-11-02T03:04:34.298Z,11.23
2022-11-02T03:07:29.551Z,10.07
2022-11-02T03:10:29.574Z,5.60
2022-11-02T03:13:40.967Z,8.00
2022-11-02T03:16:29.373Z,8.63
2022-11-02T03:19:55.362Z,11.38
2022-11-02T03:22:45.987Z,14.80
2022-11-02T03:25:34.478Z,11.95
2022-11-02T03:28:42.774Z,13.43
2022-11-02T03:31:36.721Z,11.35
2022-11-02T03:34:39.210Z,12.30
2022-11-02T03:37:30.318Z,9.85
2022-11-02T03:40:26.243Z,6.75
2022-11-02T03:43:13.614Z,14.93
2022-11-02T03:46:02.650Z,15.75
2022-11-02T03:48:50.276Z,8.23
2022-11-02T03:51:38.520Z,14.10
2022-11-02T03:54:35.010Z,14.45
2022-11-02T03:57:27.236Z,11.48
2022-11-02T04:00:14.894Z,11.50
2022-11-02T04:03:08.121Z,10.45
2022-11-02T04:05:53.287Z,12.05
2022-11-02T04:08:49.309Z,19.23
2022-11-02T04:11:54.702Z,10.50
2022-11-02T04:14:40.283Z,14.20
2022-11-02T04:17:44.397Z,13.70
2022-11-02T04:23:50.174Z,8.65
2022-11-02T04:26:35.581Z,17.42
2022-11-02T04:29:21.055Z,13.52
2022-11-02T04:32:06.796Z,16.30
2022-11-02T04:34:52.333Z,17.60
2022-11-02T04:38:03.333Z,12.90
2022-11-02T04:40:51.049Z,17.33
2022-11-02T04:43:36.297Z,13.35
2022-11-02T04:46:23.411Z,11.98
2022-11-02T04:49:09.288Z,15.27
2022-11-02T04:51:54.724Z,13.85
2022-11-02T04:54:40.235Z,18.20
2022-11-02T04:57:25.688Z,10.25
2022-11-02T05:00:11.993Z,15.88
2022-11-02T05:02:57.181Z,9.80
2022-11-02T05:05:43.736Z,10.27
2022-11-02T05:08:29.396Z,17.25
2022-11-02T05:11:14.803Z,11.93
2022-11-02T05:14:00.213Z,11.95
2022-11-02T05:16:45.446Z,10.98
2022-11-02T05:19:31.110Z,13.20
2022-11-02T05:22:16.635Z,14.10
2022-11-02T05:25:02.759Z,10.88
2022-11-02T05:27:48.028Z,8.70
2022-11-02T05:30:33.351Z,16.35
2022-11-02T05:33:19.569Z,8.05
2022-11-02T05:36:05.155Z,15.68
2022-11-02T05:38:54.546Z,16.17
2022-11-02T05:41:40.589Z,11.15
2022-11-02T05:44:26.175Z,15.15
2022-11-02T05:47:11.592Z,19.70
2022-11-02T05:49:57.004Z,8.45
2022-11-02T05:52:42.493Z,14.68
2022-11-02T05:55:28.329Z,13.57
2022-11-02T05:58:13.843Z,11.57
2022-11-02T06:01:00.520Z,9.15
2022-11-02T06:03:50.588Z,15.55
2022-11-02T06:06:39.056Z,10.27
2022-11-02T06:09:24.646Z,12.20
2022-11-02T06:12:10.030Z,16.88
2022-11-02T06:14:55.877Z,14.32
2022-11-02T06:17:41.287Z,10.77
2022-11-02T06:20:26.688Z,10.48
2022-11-02T06:23:14.448Z,12.85
2022-11-02T06:26:00.752Z,16.40
2022-11-02T06:28:45.979Z,13.82
2022-11-02T06:31:31.610Z,12.63
2022-11-02T06:34:17.935Z,8.90
2022-11-02T06:37:04.070Z,14.23
2022-11-02T06:39:49.813Z,24.27
2022-11-02T06:42:40.466Z,16.42
2022-11-02T06:45:31.090Z,17.20
2022-11-02T06:48:16.798Z,18.35
2022-11-02T06:51:02.861Z,11.48
2022-11-02T06:53:48.496Z,19.88
2022-11-02T06:56:34.260Z,10.15
2022-11-02T06:59:19.681Z,9.07
2022-11-02T07:02:05.370Z,15.15
2022-11-02T07:04:50.906Z,15.98
2022-11-02T07:07:36.573Z,17.75
2022-11-02T07:10:22.383Z,14.93
2022-11-02T07:13:07.788Z,11.25
2022-11-02T07:15:54.833Z,9.93
2022-11-02T07:18:41.472Z,15.80
2022-11-02T07:21:27.390Z,14.68
2022-11-02T07:24:12.757Z,15.15
2022-11-02T07:26:58.180Z,22.60
2022-11-02T07:29:43.862Z,16.83
2022-11-02T07:32:29.197Z,18.73
2022-11-02T07:35:16.308Z,14.68
2022-11-02T07:38:04.110Z,13.48
2022-11-02T07:40:52.764Z,10.27
2022-11-02T07:43:41.333Z,10.90
2022-11-02T07:46:28.992Z,13.18
2022-11-02T07:49:20.185Z,10.90
2022-11-02T07:52:06.956Z,17.20
2022-11-02T07:54:52.765Z,13.68
2022-11-02T07:57:38.187Z,18.17
2022-11-02T08:00:24.666Z,13.55
2022-11-02T08:03:11.719Z,11.98
2022-11-02T08:06:00.711Z,9.32
2022-11-02T08:08:46.006Z,19.25
2022-11-02T08:11:31.473Z,15.20
2022-11-02T08:14:16.958Z,16.75
2022-11-02T08:17:02.691Z,7.97
2022-11-02T08:19:48.095Z,16.08
2022-11-02T08:22:37.970Z,14.13
2022-11-02T08:25:23.550Z,14.77
2022-11-02T08:28:19.391Z,18.50
2022-11-02T08:31:04.892Z,15.45
2022-11-02T08:33:50.077Z,14.18
2022-11-02T08:36:36.849Z,20.45
2022-11-02T08:39:22.058Z,21.27
2022-11-02T08:42:07.561Z,9.23
2022-11-02T08:44:53.054Z,14.95
2022-11-02T08:47:42.354Z,15.68
2022-11-02T08:50:28.127Z,14.23
2022-11-02T08:53:13.701Z,18.48
2022-11-02T08:55:59.350Z,15.57
2022-11-02T08:58:44.624Z,14.40
2022-11-02T09:01:30.299Z,16.27
2022-11-02T09:04:15.804Z,15.93
2022-11-02T09:07:01.230Z,22.45
2022-11-02T09:09:46.587Z,14.48
2022-11-02T09:12:32.522Z,17.52
2022-11-02T09:15:18.224Z,22.95
2022-11-02T09:18:04.975Z,23.42
2022-11-02T09:20:51.490Z,16.25
2022-11-02T09:23:37.021Z,14.73
2022-11-02T09:26:22.614Z,15.18
2022-11-02T09:29:08.497Z,10.93
2022-11-02T09:31:54.120Z,12.75
2022-11-02T09:34:40.061Z,14.20
2022-11-02T09:37:25.334Z,13.35
2022-11-02T09:40:12.201Z,16.48
2022-11-02T09:43:29.550Z,11.88
2022-11-02T09:46:24.105Z,16.02
2022-11-02T09:49:20.009Z,13.48
2022-11-02T09:52:07.651Z,15.85
2022-11-02T09:54:54.879Z,16.38
2022-11-02T09:57:45.890Z,11.95
2022-11-02T10:00:38.050Z,15.52
2022-11-02T10:03:55.632Z,12.00
2022-11-02T10:06:47.308Z,17.00
2022-11-02T10:09:49.648Z,19.50
2022-11-02T10:12:50.221Z,16.02
2022-11-02T10:15:41.319Z,12.45
2022-11-02T10:18:29.238Z,16.60
2022-11-02T10:21:23.835Z,15.65
2022-11-02T10:24:35.904Z,15.75
2022-11-02T10:27:29.324Z,10.45
2022-11-02T10:30:18.556Z,13.05
2022-11-02T10:33:15.357Z,15.32
2022-11-02T10:36:24.885Z,14.20
2022-11-02T10:39:29.819Z,15.35
2022-11-02T10:42:45.720Z,17.95
2022-11-02T10:45:51.562Z,11.88
2022-11-02T10:48:58.769Z,17.33
2022-11-02T10:51:44.270Z,12.55
2022-11-02T10:54:34.725Z,12.63
2022-11-02T10:57:24.014Z,15.10
2022-11-02T11:00:28.910Z,18.27
2022-11-02T11:03:16.588Z,14.90
2022-11-02T11:06:04.599Z,11.40
2022-11-02T11:08:52.129Z,14.50
2022-11-02T11:11:38.913Z,11.20
2022-11-02T11:20:45.843Z,13.00
2022-11-02T11:23:31.722Z,17.48
2022-11-02T11:26:30.755Z,13.27
2022-11-02T11:29:23.333Z,12.90
2022-11-02T11:32:29.591Z,16.75
2022-11-02T11:35:19.108Z,15.00
2022-11-02T11:38:14.919Z,16.83
2022-11-02T11:41:00.688Z,14.77
2022-11-02T11:43:47.390Z,17.98
2022-11-02T11:46:46.730Z,14.35
2022-11-02T11:50:02.986Z,11.18
2022-11-02T11:52:41.239Z,13.13
2022-11-02T11:55:28.876Z,18.38
2022-11-02T11:58:22.335Z,12.32
2022-11-02T12:01:20.126Z,14.88
2022-11-02T12:04:05.582Z,13.52
2022-11-02T12:07:03.005Z,9.88
2022-11-02T12:10:03.467Z,17.40
2022-11-02T12:13:07.395Z,18.30
2022-11-02T12:16:01.777Z,14.57
2022-11-02T12:19:08.420Z,15.77
2022-11-02T12:22:23.795Z,16.33
2022-11-02T12:25:29.252Z,19.90
2022-11-02T12:28:52.933Z,15.75
2022-11-02T12:31:45.273Z,13.82
2022-11-02T12:35:27.794Z,19.75
2022-11-02T12:38:27.193Z,15.60
2022-11-02T12:41:21.839Z,11.57
2022-11-02T12:44:28.807Z,18.67
2022-11-02T12:47:31.304Z,17.05
2022-11-02T12:50:32.095Z,14.02
2022-11-02T12:53:57.857Z,17.65
2022-11-02T12:56:50.950Z,13.65
2022-11-02T12:59:38.375Z,13.15
2022-11-02T13:02:35.243Z,19.95
2022-11-02T13:05:38.481Z,23.63
2022-11-02T13:08:39.365Z,24.20
2022-11-02T13:11:43.989Z,15.00
2022-11-02T13:14:39.992Z,19.48
2022-11-02T13:17:52.744Z,19.10
2022-11-02T13:20:50.358Z,21.40
2022-11-02T13:23:45.649Z,18.80
2022-11-02T13:26:41.497Z,14.57
2022-11-02T13:29:40.228Z,20.13
2022-11-02T13:32:41.951Z,15.40
2022-11-02T13:35:35.047Z,17.42
2022-11-02T13:38:35.401Z,17.25
2022-11-02T13:41:26.781Z,16.48
2022-11-02T13:44:23.053Z,19.70
2022-11-02T13:47:20.485Z,19.20
2022-11-02T13:50:12.082Z,17.38
2022-11-02T13:53:05.235Z,19.35
2022-11-02T13:56:00.332Z,20.10
2022-11-02T13:58:56.191Z,21.95
2022-11-02T14:01:45.205Z,21.90
2022-11-02T14:04:41.982Z,25.65
2022-11-02T14:07:35.513Z,25.27
2022-11-02T14:10:20.911Z,20.13
2022-11-02T14:13:13.566Z,19.20
2022-11-02T14:15:58.909Z,21.63
2022-11-02T14:18:44.493Z,21.95
2022-11-02T14:21:59.640Z,16.95
2022-11-02T14:24:53.983Z,20.30
2022-11-02T14:27:39.742Z,18.35
2022-11-02T14:30:44.196Z,24.13
2022-11-02T14:33:51.029Z,17.70
2022-11-02T14:37:19.128Z,21.73
2022-11-02T14:40:13.443Z,20.83
2022-11-02T14:43:16.063Z,20.58
2022-11-02T14:46:24.906Z,21.50
2022-11-02T14:49:23.142Z,22.17
2022-11-02T14:52:14.968Z,22.52
2022-11-02T14:55:06.132Z,22.70
2022-11-02T14:57:56.860Z,23.85
2022-11-02T15:00:48.407Z,27.63
2022-11-02T15:03:41.347Z,22.92
2022-11-02T15:06:29.183Z,19.33
2022-11-02T15:09:54.299Z,27.20
2022-11-02T15:12:41.360Z,19.23
2022-11-02T15:15:31.173Z,14.50
2022-11-02T15:18:37.344Z,18.67
2022-11-02T15:21:23.618Z,21.15
2022-11-02T15:24:18.928Z,25.80
2022-11-02T15:27:07.373Z,20.05
2022-11-02T15:29:53.240Z,23.35
2022-11-02T15:32:44.232Z,21.27
2022-11-02T15:35:37.994Z,19.52
2022-11-02T15:38:33.791Z,23.00
2022-11-02T15:41:37.303Z,17.08
2022-11-02T15:44:27.359Z,21.02
2022-11-02T15:47:29.318Z,18.67
2022-11-02T15:50:45.368Z,21.20
2022-11-02T15:53:36.811Z,19.88
2022-11-02T15:56:28.252Z,16.77
2022-11-02T15:59:44.403Z,19.90
2022-11-02T16:02:35.062Z,10.48
2022-11-02T16:05:31.012Z,20.08
2022-11-02T16:08:36.031Z,17.83
2022-11-02T16:11:21.589Z,19.55
2022-11-02T16:14:17.271Z,25.05
2022-11-02T16:17:02.940Z,21.75
2022-11-02T16:19:49.890Z,18.85
2022-11-02T16:22:44.960Z,20.10
2022-11-02T16:25:39.595Z,28.20
2022-11-02T16:28:31.722Z,24.95
2022-11-02T16:31:21.425Z,21.50
2022-11-02T16:34:31.155Z,26.20
2022-11-02T16:37:19.262Z,21.02
2022-11-02T16:40:06.716Z,19.20
2022-11-02T16:42:53.494Z,16.85
2022-11-02T16:45:43.365Z,15.68
2022-11-02T16:48:33.786Z,20.38
2022-11-02T16:51:19.609Z,24.92
2022-11-02T16:54:24.983Z,17.42
2022-11-02T16:57:12.134Z,19.42
2022-11-02T16:59:59.749Z,18.27
2022-11-02T17:02:45.662Z,20.10
2022-11-02T17:05:31.357Z,22.40
2022-11-02T17:08:26.756Z,19.15
2022-11-02T17:11:17.038Z,20.33
2022-11-02T17:14:02.840Z,15.30
2022-11-02T17:17:30.375Z,21.40
2022-11-02T17:20:21.886Z,18.38
2022-11-02T17:23:09.786Z,17.65
2022-11-02T17:26:26.997Z,15.45
2022-11-02T17:29:27.460Z,24.52
2022-11-02T17:32:17.147Z,19.75
2022-11-02T17:35:04.816Z,18.98
2022-11-02T17:37:50.559Z,17.70
2022-11-02T17:40:37.212Z,18.27
2022-11-02T17:43:23.774Z,16.02
2022-11-02T17:46:09.220Z,20.80
2022-11-02T17:48:55.016Z,17.13
2022-11-02T17:51:41.678Z,20.00
2022-11-02T17:54:27.009Z,17.33
2022-11-02T17:57:14.519Z,23.55
2022-11-02T17:59:59.779Z,18.25
2022-11-02T18:02:49.321Z,18.05
2022-11-02T18:05:36.451Z,22.98
2022-11-02T18:08:22.051Z,21.63
2022-11-02T18:11:09.445Z,16.75
2022-11-02T18:13:55.142Z,22.23
2022-11-02T18:16:40.565Z,15.38
2022-11-02T18:19:26.141Z,18.70
2022-11-02T18:22:13.450Z,19.73
2022-11-02T18:24:58.860Z,18.55
2022-11-02T18:27:45.779Z,21.95
2022-11-02T18:30:32.473Z,21.33
2022-11-02T18:33:18.338Z,12.35
2022-11-02T18:36:09.487Z,20.63
2022-11-02T18:38:55.184Z,16.38
2022-11-02T18:41:42.392Z,18.23
2022-11-02T18:44:27.781Z,21.50
2022-11-02T18:47:13.364Z,18.17
2022-11-02T18:50:00.169Z,17.95
2022-11-02T18:52:49.129Z,20.70
2022-11-02T18:55:34.734Z,20.52
2022-11-02T18:58:20.457Z,14.57
2022-11-02T19:01:10.513Z,20.30
2022-11-02T19:03:58.398Z,17.48
2022-11-02T19:07:02.084Z,21.75
2022-11-02T19:09:47.604Z,17.45
2022-11-02T19:12:32.996Z,21.70
2022-11-02T19:15:18.402Z,17.00
2022-11-02T19:18:04.024Z,19.23
2022-11-02T19:20:49.395Z,24.30
2022-11-02T19:23:35.081Z,16.48
2022-11-02T19:26:20.537Z,24.13
2022-11-02T19:29:06.943Z,27.38
2022-11-02T19:31:53.389Z,17.58
2022-11-02T19:34:39.351Z,17.45
2022-11-02T19:37:25.029Z,12.05
2022-11-02T19:40:11.057Z,18.80
2022-11-02T19:42:56.911Z,30.58
2022-11-02T19:45:42.529Z,24.27
2022-11-02T19:48:28.576Z,20.50
2022-11-02T19:51:25.896Z,20.70
2022-11-02T19:54:11.709Z,25.73
2022-11-02T19:56:57.577Z,21.98
2022-11-02T19:59:43.138Z,23.73
2022-11-02T20:02:28.825Z,24.80
2022-11-02T20:05:14.707Z,23.35
2022-11-02T20:08:00.341Z,25.13
2022-11-02T20:10:45.862Z,18.48
2022-11-02T20:13:36.496Z,23.80
2022-11-02T20:16:22.022Z,23.10
2022-11-02T20:19:09.047Z,26.75
2022-11-02T20:21:54.681Z,18.35
2022-11-02T20:24:40.510Z,28.30
2022-11-02T20:27:25.902Z,23.73
2022-11-02T20:30:12.714Z,20.88
2022-11-02T20:32:58.037Z,20.67
2022-11-02T20:35:45.671Z,28.67
2022-11-02T20:38:31.715Z,22.88
2022-11-02T20:41:19.652Z,17.90
2022-11-02T20:44:05.413Z,17.25
2022-11-02T20:46:53.275Z,16.40
2022-11-02T20:49:54.463Z,16.05
2022-11-02T20:52:39.593Z,13.32
2022-11-02T20:55:26.018Z,23.25
2022-11-02T20:58:11.684Z,23.27
2022-11-02T21:05:23.363Z,20.88
2022-11-02T21:08:09.269Z,24.70
2022-11-02T21:10:56.827Z,26.48
2022-11-02T21:13:54.150Z,23.63
2022-11-02T21:16:40.025Z,24.17
2022-11-02T21:19:25.540Z,28.35
2022-11-02T21:22:15.143Z,21.17
2022-11-02T21:25:01.176Z,28.48
2022-11-02T21:27:50.532Z,31.55
2022-11-02T21:30:36.087Z,21.75
2022-11-02T21:33:21.607Z,21.65
2022-11-02T21:36:08.007Z,25.45
2022-11-02T21:38:53.468Z,20.35
2022-11-02T21:41:39.506Z,22.38
2022-11-02T21:44:25.812Z,25.33
2022-11-02T21:47:13.063Z,26.13
2022-11-02T21:49:58.821Z,17.20
2022-11-02T21:52:45.314Z,23.42
2022-11-02T21:55:30.791Z,20.65
2022-11-02T21:58:16.975Z,25.95
2022-11-02T22:01:26.664Z,21.23
2022-11-02T22:04:24.850Z,23.88
2022-11-02T22:07:10.575Z,17.35
2022-11-02T22:09:55.801Z,21.77
2022-11-02T22:12:59.689Z,19.05
2022-11-02T22:15:45.806Z,16.63
2022-11-02T22:18:31.372Z,20.42
2022-11-02T22:21:18.161Z,18.48
2022-11-02T22:24:04.750Z,22.70
2022-11-02T22:26:51.203Z,21.80
2022-11-02T22:29:36.677Z,17.08
2022-11-02T22:32:22.450Z,19.27
2022-11-02T22:35:10.906Z,16.02
2022-11-02T22:38:15.018Z,20.27
2022-11-02T22:41:08.643Z,23.55
2022-11-02T22:43:59.429Z,18.33
2022-11-02T22:46:50.460Z,24.20
2022-11-02T22:49:36.359Z,22.60
2022-11-02T22:52:21.632Z,17.60
2022-11-02T22:55:07.950Z,21.42
2022-11-02T22:57:59.806Z,16.92
2022-11-02T23:00:46.469Z,14.98
2022-11-02T23:03:33.483Z,16.50
2022-11-02T23:06:21.384Z,16.63
2022-11-02T23:09:07.264Z,18.42
2022-11-02T23:11:52.782Z,16.10
2022-11-02T23:14:38.125Z,17.75
2022-11-02T23:17:23.576Z,17.55
2022-11-02T23:20:09.857Z,19.27
2022-11-02T23:23:17.542Z,14.30
2022-11-02T23:26:03.188Z,23.77
2022-11-02T23:29:07.220Z,25.38
2022-11-02T23:32:11.217Z,19.25
2022-11-02T23:35:16.696Z,18.50
2022-11-02T23:38:05.010Z,17.80
2022-11-02T23:40:54.938Z,19.13
2022-11-02T23:43:40.478Z,16.48
2022-11-02T23:46:26.036Z,13.30
2022-11-02T23:49:12.594Z,13.45
2022-11-02T23:52:16.502Z,15.20
2022-11-02T23:55:20.441Z,17.90
2022-11-02T23:58:05.989Z,21.48
